Time;durP1;ratioP1;P1;durP2;ratioP2;P2;SDS_P1;SDS_P2;PMS_P1;PMS_P2;Temp;Humidity;BMP_temperature;BMP_pressure;BME280_temperature;BME280_humidity;BME280_pressure;Samples;Min_cycle;Max_cycle;Signal;HPM_P1;HPM_P2
2023/07/01 00:01:17;;;;;;;2.47;1.50;;;;;;;18.05;52.49;100708.78;5072287;28;20017;-80
2023/07/01 00:03:43;;;;;;;1.43;1.33;;;;;;;18.04;52.42;100705.28;5072936;28;20020;-80
2023/07/01 00:06:08;;;;;;;1.53;1.40;;;;;;;18.01;52.53;100697.56;5071968;28;20025;-80
2023/07/01 00:08:33;;;;;;;1.60;1.50;;;;;;;18.01;52.33;100687.06;5073059;28;20039;-80
2023/07/01 00:11:00;;;;;;;1.63;1.50;;;;;;;18.01;53.07;100694.94;5072064;28;20078;-80
2023/07/01 00:13:27;;;;;;;1.83;1.50;;;;;;;18.02;53.40;100694.00;5072807;28;20399;-80
2023/07/01 00:15:53;;;;;;;1.55;1.45;;;;;;;18.00;52.65;100688.00;5072632;28;20489;-80
2023/07/01 00:18:19;;;;;;;2.78;1.60;;;;;;;18.01;53.04;100678.34;5071480;28;20020;-80
2023/07/01 00:20:44;;;;;;;1.87;1.50;;;;;;;17.99;53.20;100678.44;5072955;28;20021;-80
2023/07/01 00:23:09;;;;;;;3.17;1.87;;;;;;;17.98;53.25;100667.97;5072598;28;20498;-80
2023/07/01 00:25:35;;;;;;;1.53;1.40;;;;;;;17.95;53.17;100668.13;5071216;28;20027;-80
2023/07/01 00:28:00;;;;;;;1.97;1.60;;;;;;;17.95;53.12;100663.72;5072706;28;20154;-80
2023/07/01 00:30:25;;;;;;;1.80;1.70;;;;;;;17.97;53.80;100663.66;5072677;28;20242;-80
2023/07/01 00:32:51;;;;;;;1.60;1.50;;;;;;;17.90;53.63;100653.44;5071657;28;20021;-80
2023/07/01 00:35:16;;;;;;;2.53;1.63;;;;;;;17.94;54.05;100659.38;5072347;28;20392;-80
2023/07/01 00:37:41;;;;;;;2.17;1.90;;;;;;;17.94;53.38;100654.13;5072622;28;20028;-80
2023/07/01 00:40:07;;;;;;;2.10;1.80;;;;;;;17.94;53.51;100648.03;5071864;28;20046;-80
2023/07/01 00:42:32;;;;;;;3.45;1.73;;;;;;;17.88;54.54;100643.94;5072141;28;20086;-80
2023/07/01 00:44:58;;;;;;;3.37;2.10;;;;;;;17.91;53.90;100644.63;5072085;28;20420;-80
2023/07/01 00:47:24;;;;;;;2.87;1.93;;;;;;;17.91;54.27;100635.91;5071606;28;20036;-80
2023/07/01 00:49:50;;;;;;;3.13;1.92;;;;;;;17.85;54.38;100625.72;5072422;28;20051;-80
2023/07/01 00:52:28;;;;;;;3.33;1.80;;;;;;;17.88;54.27;100636.06;5071957;28;20116;-80
2023/07/01 00:54:53;;;;;;;1.95;1.70;;;;;;;17.88;54.40;100633.44;5071407;28;20037;-80
2023/07/01 00:57:19;;;;;;;2.10;1.50;;;;;;;17.82;54.92;100631.97;5072644;28;20027;-80
2023/07/01 00:59:44;;;;;;;2.30;1.60;;;;;;;17.87;54.90;100642.25;5072552;28;20024;-80
2023/07/01 01:02:37;;;;;;;3.53;1.90;;;;;;;17.82;56.36;100625.84;5070573;28;20435;-80
2023/07/01 01:05:17;;;;;;;2.17;1.77;;;;;;;17.83;55.58;100625.81;5072397;28;20032;-80
2023/07/01 01:07:47;;;;;;;2.85;1.80;;;;;;;17.82;56.37;100631.09;5071605;28;20078;-81
2023/07/01 01:10:20;;;;;;;3.78;2.03;;;;;;;17.80;56.91;100618.06;5071836;28;20052;-81
2023/07/01 01:12:47;;;;;;;4.63;1.90;;;;;;;17.73;56.58;100614.88;5071262;28;20032;-80
2023/07/01 01:15:12;;;;;;;4.88;1.90;;;;;;;17.75;57.59;100615.66;5071210;28;20542;-80
2023/07/01 01:17:40;;;;;;;7.67;2.10;;;;;;;17.76;56.73;100613.88;5072297;28;20032;-80
2023/07/01 01:20:13;;;;;;;2.22;1.90;;;;;;;17.71;57.60;100608.88;5070075;28;20028;-80
2023/07/01 01:22:49;;;;;;;2.63;1.77;;;;;;;17.74;58.02;100606.09;5071480;28;20032;-80
2023/07/01 01:25:29;;;;;;;1.80;1.63;;;;;;;17.76;57.29;100603.38;5071819;28;20032;-80
2023/07/01 01:27:59;;;;;;;2.35;1.67;;;;;;;17.75;58.37;100597.31;5072448;28;20016;-80
2023/07/01 01:30:28;;;;;;;2.42;1.70;;;;;;;17.77;58.62;100599.00;5071100;28;20024;-80
2023/07/01 01:32:54;;;;;;;3.55;1.60;;;;;;;17.75;58.75;100594.69;5072042;28;20032;-80
2023/07/01 01:35:19;;;;;;;2.57;1.90;;;;;;;17.72;58.42;100586.94;5070600;28;20081;-80
2023/07/01 01:38:06;;;;;;;2.93;1.97;;;;;;;17.73;58.78;100596.53;5075127;28;20089;-80
2023/07/01 01:40:46;;;;;;;4.25;2.10;;;;;;;17.71;59.70;100589.66;5075680;28;20082;-80
2023/07/01 01:43:37;;;;;;;4.18;2.00;;;;;;;17.67;60.06;100590.72;5074392;28;20511;-80
2023/07/01 01:46:07;;;;;;;2.75;2.25;;;;;;;17.65;59.53;100574.19;5075739;28;20024;-80
2023/07/01 01:48:34;;;;;;;2.65;2.00;;;;;;;17.68;59.43;100579.31;5075332;28;20020;-80
2023/07/01 01:51:02;;;;;;;2.17;1.98;;;;;;;17.59;59.91;100564.84;5074853;28;20028;-79
2023/07/01 01:53:29;;;;;;;2.47;1.90;;;;;;;17.66;59.68;100571.50;5075565;28;20430;-80
2023/07/01 01:55:55;;;;;;;2.15;1.95;;;;;;;17.65;60.56;100567.19;5075623;28;20025;-80
2023/07/01 01:58:30;;;;;;;2.13;1.77;;;;;;;17.64;61.72;100573.34;5074555;28;20025;-80
2023/07/01 02:00:56;;;;;;;2.92;2.00;;;;;;;17.62;61.59;100561.25;5068078;28;20021;-79
2023/07/01 02:03:21;;;;;;;2.70;2.00;;;;;;;17.63;61.60;100563.78;5055228;28;20021;-79
2023/07/01 02:05:52;;;;;;;4.13;2.10;;;;;;;17.64;61.44;100564.63;5054833;28;20111;-80
2023/07/01 02:08:17;;;;;;;2.63;1.90;;;;;;;17.62;62.75;100562.09;5055204;28;20373;-80
2023/07/01 02:10:43;;;;;;;3.53;1.97;;;;;;;17.59;61.89;100559.59;5054533;28;20028;-79
2023/07/01 02:13:08;;;;;;;2.30;1.73;;;;;;;17.58;64.10;100552.66;5054989;28;20021;-80
2023/07/01 02:15:33;;;;;;;3.40;1.70;;;;;;;17.57;62.68;100545.69;5070709;28;20423;-80
2023/07/01 02:17:59;;;;;;;1.73;1.60;;;;;;;17.57;63.47;100554.44;5073982;28;20361;-79
2023/07/01 02:20:24;;;;;;;1.67;1.57;;;;;;;17.57;62.48;100553.56;5074863;28;20138;-80
2023/07/01 02:22:52;;;;;;;2.30;1.93;;;;;;;17.48;65.33;100533.91;5075109;28;20404;-80
2023/07/01 02:25:18;;;;;;;1.90;1.80;;;;;;;17.49;63.29;100543.47;5073769;28;20475;-80
2023/07/01 02:27:44;;;;;;;1.93;1.77;;;;;;;17.51;65.25;100535.53;5074951;28;20109;-80
2023/07/01 02:30:10;;;;;;;;;;;;;;;17.45;67.31;100529.63;5075042;28;20037;-80
2023/07/01 02:32:35;;;;;;;4.73;2.33;;;;;;;17.35;68.28;100528.41;5074069;28;19912;-80
2023/07/01 02:35:00;;;;;;;3.73;2.33;;;;;;;17.27;69.89;100527.94;5074863;28;20496;-80
2023/07/01 02:37:26;;;;;;;3.23;2.33;;;;;;;17.23;69.44;100531.59;5074859;28;20505;-80
2023/07/01 02:39:51;;;;;;;5.00;2.30;;;;;;;17.14;68.24;100514.56;5074027;28;20051;-80
2023/07/01 02:42:26;;;;;;;3.53;2.07;;;;;;;17.12;68.87;100512.00;5073944;28;20111;-80
2023/07/01 02:44:51;;;;;;;2.42;2.00;;;;;;;17.12;68.55;100517.25;5074277;28;20029;-80
2023/07/01 02:47:21;;;;;;;3.63;2.70;;;;;;;17.09;68.96;100522.66;5073352;28;20075;-80
2023/07/01 02:49:46;;;;;;;3.63;2.35;;;;;;;17.02;72.07;100518.59;5073885;28;20031;-80
2023/07/01 02:52:11;;;;;;;3.77;2.40;;;;;;;17.01;73.03;100522.16;5073982;28;20033;-80
2023/07/01 02:54:40;;;;;;;4.43;2.40;;;;;;;16.96;75.42;100514.50;5073493;28;20028;-79
2023/07/01 02:57:08;;;;;;;3.13;2.20;;;;;;;16.93;75.10;100519.88;5071871;28;20035;-80
2023/07/01 02:59:34;;;;;;;3.28;2.17;;;;;;;16.89;75.17;100523.56;5074233;28;20055;-80
2023/07/01 03:01:59;;;;;;;4.07;2.33;;;;;;;16.82;77.45;100514.31;5073501;28;20025;-80
2023/07/01 03:04:30;;;;;;;3.63;2.53;;;;;;;16.74;77.08;100513.78;5074237;28;20082;-80
2023/07/01 03:06:56;;;;;;;2.83;2.25;;;;;;;16.67;79.16;100497.50;5072963;28;20042;-80
2023/07/01 03:09:28;;;;;;;2.70;2.10;;;;;;;16.68;79.61;100507.91;5073615;28;20124;-80
2023/07/01 03:11:53;;;;;;;3.22;2.28;;;;;;;16.60;80.82;100496.09;5073769;28;20032;-80
2023/07/01 03:14:20;;;;;;;1.87;1.70;;;;;;;16.58;81.60;100496.16;5072975;28;20040;-79
2023/07/01 03:16:46;;;;;;;3.58;2.00;;;;;;;16.54;80.31;100491.16;5074114;28;20056;-80
2023/07/01 03:19:11;;;;;;;3.10;2.10;;;;;;;16.48;81.19;100497.50;5073559;28;20012;-80
2023/07/01 03:21:37;;;;;;;2.63;2.10;;;;;;;16.41;81.68;100483.84;5073333;28;20035;-80
2023/07/01 03:24:05;;;;;;;4.23;1.97;;;;;;;16.37;84.85;100474.41;5073734;28;20059;-80
2023/07/01 03:26:31;;;;;;;2.30;2.10;;;;;;;16.32;83.08;100487.72;5055245;28;20029;-80
2023/07/01 03:28:56;;;;;;;3.20;2.23;;;;;;;16.19;84.70;100461.25;5052908;28;20040;-79
2023/07/01 03:31:22;;;;;;;4.03;2.40;;;;;;;16.25;84.93;100482.81;5053459;28;20029;-80
2023/07/01 03:33:48;;;;;;;2.60;1.90;;;;;;;16.24;83.35;100476.75;5053866;28;20025;-80
2023/07/01 03:36:13;;;;;;;3.35;2.00;;;;;;;16.25;84.15;100472.34;5052383;28;20021;-80
2023/07/01 03:38:42;;;;;;;2.73;1.97;;;;;;;16.28;85.92;100467.81;5054397;28;20084;-79
2023/07/01 03:41:07;;;;;;;3.13;2.08;;;;;;;16.29;83.87;100474.75;5054483;28;20120;-80
2023/07/01 03:43:34;;;;;;;5.43;2.30;;;;;;;16.29;86.47;100476.53;5052831;28;20100;-79
2023/07/01 03:45:59;;;;;;;4.80;2.20;;;;;;;16.27;86.40;100470.50;5053294;28;20025;-80
2023/07/01 03:48:24;;;;;;;2.47;2.00;;;;;;;16.27;88.23;100467.91;5053139;28;20036;-80
2023/07/01 03:50:50;;;;;;;3.47;2.27;;;;;;;16.19;85.87;100463.88;5066078;28;20054;-80
2023/07/01 03:53:15;;;;;;;2.27;2.00;;;;;;;16.20;87.57;100467.31;5072431;28;20037;-80
2023/07/01 03:55:41;;;;;;;2.43;2.10;;;;;;;16.19;86.66;100474.34;5073547;28;20033;-80
2023/07/01 03:58:06;;;;;;;3.40;2.40;;;;;;;16.14;90.88;100465.81;5072476;28;20518;-80
2023/07/01 04:00:31;;;;;;;2.30;2.00;;;;;;;16.06;88.28;100458.31;5072954;28;20029;-80
2023/07/01 04:03:05;;;;;;;2.33;2.07;;;;;;;16.02;91.99;100462.00;5072650;28;20031;-80
2023/07/01 04:05:36;;;;;;;2.55;2.05;;;;;;;15.98;88.13;100455.19;5073046;28;20437;-80
2023/07/01 04:08:02;;;;;;;2.75;2.00;;;;;;;15.98;92.93;100451.75;5072805;28;20031;-81
2023/07/01 04:10:28;;;;;;;2.27;2.00;;;;;;;15.95;92.12;100454.47;5071693;28;20025;-81
2023/07/01 04:12:54;;;;;;;2.53;1.98;;;;;;;15.92;90.23;100438.91;5072827;28;20077;-82
2023/07/01 04:15:19;;;;;;;2.90;1.97;;;;;;;15.92;89.94;100441.53;5072542;28;20044;-82
2023/07/01 04:17:48;;;;;;;2.23;2.00;;;;;;;15.88;91.79;100436.41;5072365;28;20040;-83
2023/07/01 04:20:14;;;;;;;2.38;1.80;;;;;;;15.87;92.26;100433.88;5072679;28;20025;-83
2023/07/01 04:22:40;;;;;;;2.03;1.87;;;;;;;15.84;93.03;100427.03;5061159;28;20036;-84
2023/07/01 04:25:07;;;;;;;2.83;2.08;;;;;;;15.86;95.71;100429.56;5051893;28;20021;-82
2023/07/01 04:27:33;;;;;;;2.50;2.10;;;;;;;15.82;95.53;100428.81;5052473;28;20488;-82
2023/07/01 04:29:59;;;;;;;2.17;1.98;;;;;;;15.76;97.19;100431.72;5052589;28;20028;-83
2023/07/01 04:32:24;;;;;;;2.13;2.00;;;;;;;15.72;95.42;100424.91;5052737;28;20048;-82
2023/07/01 04:34:49;;;;;;;2.10;2.00;;;;;;;15.67;99.41;100421.63;5072127;28;20028;-82
2023/07/01 04:37:15;;;;;;;2.20;2.00;;;;;;;15.64;96.91;100420.00;5072339;28;20117;-82
2023/07/01 04:39:41;;;;;;;2.10;1.90;;;;;;;15.65;97.76;100420.88;5072031;28;20151;-83
2023/07/01 04:42:07;;;;;;;2.25;2.05;;;;;;;15.65;99.49;100426.09;5072593;28;20457;-82
2023/07/01 04:44:32;;;;;;;2.93;2.00;;;;;;;15.59;99.12;100416.75;5072797;28;20032;-82
2023/07/01 04:46:58;;;;;;;3.33;2.00;;;;;;;15.57;98.58;100408.94;5071739;28;20017;-83
2023/07/01 04:49:23;;;;;;;2.07;1.83;;;;;;;15.58;99.94;100422.91;5072457;28;20458;-82
2023/07/01 04:51:48;;;;;;;2.33;2.07;;;;;;;15.53;99.84;100410.03;5072287;28;20027;-82
2023/07/01 04:54:15;;;;;;;2.20;1.90;;;;;;;15.57;99.84;100402.88;5071731;28;20021;-83
2023/07/01 04:56:41;;;;;;;2.53;2.20;;;;;;;15.57;100.00;100406.34;5071996;28;20473;-82
2023/07/01 04:59:06;;;;;;;2.13;1.90;;;;;;;15.57;100.00;100408.94;5071641;28;20124;-82
2023/07/01 05:01:31;;;;;;;2.20;1.90;;;;;;;15.59;99.01;100409.75;5071915;28;20043;-82
2023/07/01 05:03:57;;;;;;;2.00;1.87;;;;;;;15.63;99.97;100399.16;5072454;28;20431;-82
2023/07/01 05:06:22;;;;;;;2.10;1.90;;;;;;;15.59;100.00;100390.59;5071170;28;20100;-82
2023/07/01 05:08:50;;;;;;;2.30;1.87;;;;;;;15.63;100.00;100391.31;5072281;28;20035;-81
2023/07/01 05:11:16;;;;;;;2.10;1.90;;;;;;;15.57;100.00;100387.19;5054538;28;20109;-82
2023/07/01 05:13:41;;;;;;;2.17;1.97;;;;;;;15.60;100.00;100393.13;5075468;28;20464;-82
2023/07/01 05:16:09;;;;;;;1.87;1.77;;;;;;;15.60;100.00;100393.13;5075816;28;20028;-82
2023/07/01 05:18:38;;;;;;;2.28;1.80;;;;;;;15.63;100.00;100394.75;5076529;28;20380;-82
2023/07/01 05:21:04;;;;;;;2.00;1.90;;;;;;;15.65;100.00;100397.31;5074826;28;20139;-82
2023/07/01 05:23:29;;;;;;;2.20;2.00;;;;;;;15.65;100.00;100398.16;5075882;28;20483;-82
2023/07/01 05:25:54;;;;;;;1.73;1.63;;;;;;;15.63;100.00;100397.38;5076207;28;20048;-82
2023/07/01 05:28:20;;;;;;;3.10;1.70;;;;;;;15.67;100.00;100395.47;5075161;28;20456;-82
2023/07/01 05:30:48;;;;;;;1.93;1.83;;;;;;;15.63;100.00;100384.28;5076073;28;20028;-82
2023/07/01 05:33:14;;;;;;;1.80;1.70;;;;;;;15.67;100.00;100395.47;5075374;28;20024;-82
2023/07/01 05:35:39;;;;;;;2.27;1.90;;;;;;;15.68;100.00;100398.03;5075414;28;20457;-83
2023/07/01 05:38:09;;;;;;;2.03;1.80;;;;;;;15.67;100.00;100390.25;5073171;28;20397;-84
2023/07/01 05:40:34;;;;;;;2.20;2.00;;;;;;;15.64;100.00;100391.22;5059307;28;20034;-83
2023/07/01 05:42:59;;;;;;;2.50;2.00;;;;;;;15.63;100.00;100392.16;5074399;28;20032;-86
2023/07/01 05:45:25;;;;;;;1.73;1.63;;;;;;;15.65;100.00;100381.63;5075702;28;20077;-85
2023/07/01 05:47:50;;;;;;;3.37;2.20;;;;;;;15.69;100.00;100386.66;5075600;28;20028;-85
2023/07/01 05:50:15;;;;;;;2.40;2.00;;;;;;;15.68;100.00;100384.09;5074569;28;20028;-86
2023/07/01 05:52:41;;;;;;;2.23;2.03;;;;;;;15.69;100.00;100391.91;5075410;28;20028;-82
2023/07/01 05:55:06;;;;;;;2.20;2.00;;;;;;;15.68;100.00;100378.84;5075650;28;20027;-82
2023/07/01 05:57:32;;;;;;;1.80;1.70;;;;;;;15.72;100.00;100377.81;5075162;28;20024;-82
2023/07/01 05:59:57;;;;;;;2.37;2.03;;;;;;;15.73;100.00;100385.59;5075500;28;20024;-82
2023/07/01 06:02:22;;;;;;;2.10;1.90;;;;;;;15.73;100.00;100387.38;5075313;28;20024;-82
2023/07/01 06:04:48;;;;;;;2.40;2.20;;;;;;;15.72;100.00;100380.44;5056497;28;20029;-82
2023/07/01 06:07:13;;;;;;;2.00;1.80;;;;;;;15.75;100.00;100375.06;5055588;28;20029;-82
2023/07/01 06:09:38;;;;;;;3.13;1.50;;;;;;;15.76;100.00;100379.38;5054684;28;20029;-82
2023/07/01 06:12:04;;;;;;;1.97;1.80;;;;;;;15.75;100.00;100368.06;5062403;28;20036;-82
2023/07/01 06:14:32;;;;;;;2.93;2.17;;;;;;;15.74;100.00;100371.59;5074691;28;20569;-82
2023/07/01 06:16:57;;;;;;;2.10;1.90;;;;;;;15.82;100.00;100373.88;5074277;28;20073;-82
2023/07/01 06:19:23;;;;;;;2.10;1.90;;;;;;;15.83;100.00;100370.34;5074795;28;20021;-82
2023/07/01 06:21:49;;;;;;;2.57;2.10;;;;;;;15.87;100.00;100366.72;5075007;28;20507;-82
2023/07/01 06:24:14;;;;;;;1.90;1.80;;;;;;;15.95;100.00;100365.50;5072737;28;20029;-82
2023/07/01 06:26:39;;;;;;;1.80;1.70;;;;;;;15.97;100.00;100361.06;5074988;28;20043;-82
2023/07/01 06:29:05;;;;;;;1.73;1.60;;;;;;;15.99;100.00;100356.56;5074913;28;20048;-82
2023/07/01 06:31:31;;;;;;;1.87;1.77;;;;;;;15.98;100.00;100357.53;5074010;28;20036;-82
2023/07/01 06:33:56;;;;;;;1.60;1.50;;;;;;;16.04;100.00;100362.47;5074483;28;20107;-82
2023/07/01 06:36:21;;;;;;;2.00;1.90;;;;;;;16.05;100.00;100369.41;5073919;28;20106;-83
2023/07/01 06:38:48;;;;;;;1.80;1.70;;;;;;;16.08;100.00;100366.66;5074186;28;20483;-83
2023/07/01 06:41:13;;;;;;;1.80;1.70;;;;;;;16.10;100.00;100369.19;5073622;28;20037;-86
2023/07/01 06:43:39;;;;;;;2.10;1.90;;;;;;;16.13;100.00;100366.44;5074795;28;20518;-84
2023/07/01 06:46:06;;;;;;;2.03;1.80;;;;;;;16.12;100.00;100362.13;5073952;28;20102;-85
2023/07/01 06:48:31;;;;;;;1.95;1.80;;;;;;;16.09;100.00;100350.03;5074587;28;20027;-83
2023/07/01 06:51:04;;;;;;;1.70;1.60;;;;;;;16.13;100.00;100367.28;5075197;28;20024;-83
2023/07/01 06:53:42;;;;;;;2.10;1.90;;;;;;;16.11;100.00;100353.41;5073416;28;20033;-84
2023/07/01 06:56:22;;;;;;;1.70;1.60;;;;;;;16.18;100.00;100359.19;5072062;28;20021;-83
2023/07/01 06:58:48;;;;;;;1.70;1.60;;;;;;;16.20;100.00;100358.22;5073857;28;20419;-83
2023/07/01 07:01:25;;;;;;;1.97;1.83;;;;;;;16.15;100.00;100344.50;5074068;28;20021;-84
2023/07/01 07:03:50;;;;;;;1.80;1.70;;;;;;;16.26;100.00;100367.56;5073932;28;20171;-84
2023/07/01 07:06:16;;;;;;;2.83;2.10;;;;;;;16.14;100.00;100348.03;5073275;28;20142;-85
2023/07/01 07:08:41;;;;;;;2.07;1.90;;;;;;;16.15;100.00;100339.25;5074092;28;20024;-84
2023/07/01 07:11:06;;;;;;;2.03;1.90;;;;;;;16.10;100.00;100341.22;5073498;28;20603;-84
2023/07/01 07:13:41;;;;;;;1.90;1.80;;;;;;;16.20;100.00;100353.00;5073399;28;20556;-83
2023/07/01 07:16:19;;;;;;;2.17;1.98;;;;;;;16.09;100.00;100339.56;5053903;28;20033;-84
2023/07/01 07:18:44;;;;;;;1.67;1.58;;;;;;;16.17;100.00;100347.88;5053884;28;20024;-83
2023/07/01 07:21:09;;;;;;;2.90;1.93;;;;;;;16.09;100.00;100339.56;5052898;28;20033;-84
2023/07/01 07:23:34;;;;;;;1.73;1.63;;;;;;;16.18;100.00;100354.81;5053953;28;20377;-86
2023/07/01 07:26:00;;;;;;;2.03;1.87;;;;;;;16.17;100.00;100358.38;5053653;28;20167;-84
2023/07/01 07:28:35;;;;;;;1.73;1.63;;;;;;;16.15;100.00;100339.25;5052958;28;20029;-84
2023/07/01 07:31:03;;;;;;;1.70;1.60;;;;;;;16.12;100.00;100326.31;5053779;28;20366;-84
2023/07/01 07:33:28;;;;;;;1.60;1.50;;;;;;;16.22;100.00;100339.81;5053729;28;20108;-85
2023/07/01 07:36:00;;;;;;;1.70;1.60;;;;;;;16.33;100.00;100347.16;5053088;28;20120;-92
2023/07/01 07:38:26;;;;;;;1.95;1.80;;;;;;;16.37;100.00;100351.34;5053868;28;20068;-85
2023/07/01 07:41:03;;;;;;;2.57;1.83;;;;;;;16.39;100.00;100340.78;5053980;28;20377;-88
2023/07/01 07:43:28;;;;;;;2.38;2.17;;;;;;;16.34;100.00;100352.34;5053490;28;20487;-88
2023/07/01 07:45:54;;;;;;;2.17;2.07;;;;;;;16.27;100.00;100329.97;5049960;28;20037;-86
2023/07/01 07:48:19;;;;;;;3.23;1.97;;;;;;;16.32;100.00;100345.47;5052410;28;20313;-87
2023/07/01 07:50:47;;;;;;;2.47;2.07;;;;;;;16.28;100.00;100322.97;5053053;28;20071;-87
2023/07/01 07:53:13;;;;;;;2.00;1.90;;;;;;;16.42;100.00;100346.75;5054021;28;20021;-87
2023/07/01 07:55:40;;;;;;;2.20;2.00;;;;;;;16.36;100.00;100332.16;5052419;28;20410;-86
2023/07/01 07:58:11;;;;;;;2.72;1.85;;;;;;;16.50;100.00;100344.59;5052932;28;20060;-87
2023/07/01 08:00:36;;;;;;;1.80;1.63;;;;;;;16.48;100.00;100335.97;5053559;28;20025;-88
2023/07/01 08:03:03;;;;;;;2.43;1.87;;;;;;;16.45;100.00;100320.38;5052729;28;20131;-89
2023/07/01 08:05:28;;;;;;;1.77;1.67;;;;;;;16.57;100.00;100342.53;5052589;28;20025;-85
2023/07/01 08:07:54;;;;;;;2.07;1.70;;;;;;;16.60;100.00;100333.66;5053649;28;20025;-89
2023/07/01 08:10:20;;;;;;;1.60;1.50;;;;;;;16.72;100.00;100333.06;5052399;28;20048;-87
2023/07/01 08:12:45;;;;;;;2.80;1.60;;;;;;;16.69;100.00;100325.34;5052807;28;20448;-84
2023/07/01 08:15:26;;;;;;;1.77;1.67;;;;;;;16.80;100.00;100328.28;5064939;28;20052;-83
2023/07/01 08:17:51;;;;;;;1.70;1.60;;;;;;;16.86;100.00;100331.53;5071746;28;20089;-85
2023/07/01 08:20:19;;;;;;;1.80;1.70;;;;;;;16.80;100.00;100307.31;5072867;28;20121;-85
2023/07/01 08:22:45;;;;;;;2.35;1.83;;;;;;;16.88;100.00;100308.72;5072760;28;20381;-84
2023/07/01 08:25:10;;;;;;;1.83;1.73;;;;;;;16.97;100.00;100330.09;5071872;28;20019;-85
2023/07/01 08:27:35;;;;;;;2.03;1.67;;;;;;;17.01;100.00;100324.72;5073027;28;20035;-85
2023/07/01 08:30:01;;;;;;;1.47;1.47;;;;;;;17.10;100.00;100329.47;5072754;28;20067;-85
2023/07/01 08:32:26;;;;;;;1.70;1.60;;;;;;;17.19;100.00;100330.78;5071469;28;20496;-84
2023/07/01 08:34:51;;;;;;;2.93;1.47;;;;;;;17.19;100.00;100315.06;5072594;28;20514;-86
2023/07/01 08:37:16;;;;;;;1.63;1.53;;;;;;;17.27;100.00;100321.63;5072017;28;20025;-86
2023/07/01 08:39:43;;;;;;;1.50;1.40;;;;;;;17.32;100.00;100318.75;5071445;28;20029;-85
2023/07/01 08:42:09;;;;;;;;;;;;;;;17.35;100.00;100326.44;5067274;28;20029;-86
2023/07/01 08:44:39;;;;;;;1.45;1.35;;;;;;;17.36;100.00;100322.88;5060071;28;19919;-88
2023/07/01 08:47:06;;;;;;;1.50;1.40;;;;;;;17.37;100.00;100326.38;5071731;28;20024;-86
2023/07/01 08:49:33;;;;;;;1.58;1.48;;;;;;;17.35;100.00;100305.44;5072924;28;20069;-86
2023/07/01 08:52:06;;;;;;;1.40;1.30;;;;;;;17.38;100.00;100321.03;5070873;28;20565;-85
2023/07/01 08:54:33;;;;;;;1.27;1.27;;;;;;;17.45;100.00;100326.81;5072831;28;20032;-87
2023/07/01 08:57:02;;;;;;;1.60;1.50;;;;;;;17.43;100.00;100324.28;5072697;28;20103;-85
2023/07/01 08:59:28;;;;;;;1.10;1.10;;;;;;;17.43;100.00;100316.41;5071541;28;20116;-82
2023/07/01 09:01:55;;;;;;;2.78;1.30;;;;;;;17.45;100.00;100316.31;5072557;28;20156;-82
2023/07/01 09:04:21;;;;;;;2.20;1.40;;;;;;;17.50;100.00;100318.69;5070880;28;20024;-82
2023/07/01 09:06:47;;;;;;;1.50;1.00;;;;;;;17.57;100.00;100315.69;5051798;28;20492;-82
2023/07/01 09:09:12;;;;;;;1.67;1.23;;;;;;;17.67;100.00;100316.03;5052452;28;20017;-83
2023/07/01 09:11:37;;;;;;;1.43;1.33;;;;;;;17.72;100.00;100319.25;5052262;28;20029;-81
2023/07/01 09:14:03;;;;;;;0.87;0.87;;;;;;;17.71;100.00;100317.56;5054554;28;20393;-87
2023/07/01 09:16:34;;;;;;;1.00;1.00;;;;;;;17.75;100.00;100323.47;5057779;28;20033;-88
2023/07/01 09:19:04;;;;;;;1.48;1.00;;;;;;;17.75;100.00;100319.09;5052579;28;20028;-86
2023/07/01 09:21:32;;;;;;;0.85;0.85;;;;;;;17.80;100.00;100328.47;5053499;28;20025;-87
2023/07/01 09:23:58;;;;;;;1.05;1.00;;;;;;;17.80;100.00;100307.47;5052111;28;20021;-86
2023/07/01 09:26:24;;;;;;;0.80;0.80;;;;;;;17.82;100.00;100316.13;5052050;28;20025;-88
2023/07/01 09:28:49;;;;;;;0.80;0.80;;;;;;;17.89;100.00;100314.88;5051622;28;20385;-87
2023/07/01 09:31:16;;;;;;;0.80;0.80;;;;;;;17.93;100.00;100316.38;5052343;28;20041;-87
2023/07/01 09:33:58;;;;;;;0.65;0.65;;;;;;;18.09;100.00;100307.72;5051935;28;20469;-86
2023/07/01 09:36:27;;;;;;;1.83;1.30;;;;;;;18.14;100.00;100303.91;5051984;28;20024;-86
2023/07/01 09:38:54;;;;;;;1.00;1.00;;;;;;;18.16;100.00;100301.19;5052131;28;20028;-85
2023/07/01 09:41:26;;;;;;;0.90;0.90;;;;;;;18.22;100.00;100300.84;5051218;28;20029;-86
2023/07/01 09:43:56;;;;;;;0.80;0.80;;;;;;;18.21;100.00;100304.41;5052423;28;20021;-87
2023/07/01 09:46:22;;;;;;;0.77;0.77;;;;;;;18.19;100.00;100306.28;5052328;28;20029;-88
2023/07/01 09:48:57;;;;;;;0.70;0.70;;;;;;;18.16;100.00;100298.56;5051696;28;20063;-88
2023/07/01 09:51:25;;;;;;;0.68;0.68;;;;;;;18.11;100.00;100301.44;5051825;28;20159;-86
2023/07/01 09:53:50;;;;;;;1.67;1.10;;;;;;;18.17;100.00;100301.13;5051980;28;20037;-87
2023/07/01 09:56:19;;;;;;;1.03;1.03;;;;;;;18.17;100.00;100305.50;5051516;28;20032;-86
2023/07/01 09:58:46;;;;;;;1.30;1.20;;;;;;;18.17;100.00;100301.13;5055303;28;20025;-87
2023/07/01 10:01:13;;;;;;;1.55;1.45;;;;;;;18.14;100.00;100300.41;5055261;28;20115;-86
2023/07/01 10:03:39;;;;;;;;;;;;;;;18.11;100.00;100300.59;5067941;28;20029;-86
2023/07/01 10:06:04;;;;;;;1.35;1.35;;;;;;;18.01;100.00;100298.47;5075019;28;19923;-86
2023/07/01 10:08:30;;;;;;;0.83;0.83;;;;;;;18.03;100.00;100296.59;5074358;28;20094;-83
2023/07/01 10:10:59;;;;;;;0.70;0.70;;;;;;;18.05;100.00;100292.13;5069557;28;20037;-89
2023/07/01 10:13:43;;;;;;;0.95;0.95;;;;;;;18.09;100.00;100289.34;5073539;28;20028;-88
2023/07/01 10:16:10;;;;;;;1.08;1.08;;;;;;;18.21;100.00;100288.66;5074302;28;20109;-88
2023/07/01 10:18:36;;;;;;;;;;;;;;;18.31;100.00;100300.31;5070265;28;20658;-87
2023/07/01 10:21:43;;;;;;;1.10;1.10;;;;;;;18.31;100.00;100289.81;5075808;28;19984;-88
2023/07/01 10:24:10;;;;;;;1.13;1.10;;;;;;;18.37;100.00;100299.13;5057652;28;20078;-88
2023/07/01 10:26:49;;;;;;;;;;;;;;;18.38;100.00;100292.94;5075655;28;20085;-88
2023/07/01 10:29:27;;;;;;;1.95;1.38;;;;;;;18.39;100.00;100299.91;5074824;28;19917;-89
2023/07/01 10:32:08;;;;;;;0.98;0.98;;;;;;;18.44;100.00;100289.13;5074658;28;20029;-88
2023/07/01 10:34:52;;;;;;;1.17;1.17;;;;;;;18.48;100.00;100288.00;5075240;28;20123;-89
2023/07/01 10:37:19;;;;;;;0.70;0.70;;;;;;;18.44;100.00;100279.44;5074180;28;20028;-89
2023/07/01 10:39:48;;;;;;;0.77;0.77;;;;;;;18.53;100.00;100284.16;5062336;28;20029;-89
2023/07/01 10:42:31;;;;;;;0.90;0.90;;;;;;;18.56;100.00;100272.66;5055248;28;20389;-89
2023/07/01 10:45:10;;;;;;;0.98;0.98;;;;;;;18.77;100.00;100285.47;5054864;28;20029;-88
2023/07/01 10:47:49;;;;;;;0.98;0.98;;;;;;;18.81;100.00;100271.19;5055617;28;20029;-90
2023/07/01 10:50:15;;;;;;;1.10;1.10;;;;;;;19.06;100.00;100280.28;5055490;28;20029;-90
2023/07/01 10:52:57;;;;;;;1.60;1.50;;;;;;;19.14;100.00;100281.53;5054314;28;20119;-89
2023/07/01 10:56:08;;;;;;;1.40;1.30;;;;;;;19.24;100.00;100283.59;5055076;28;20033;-88
2023/07/01 10:58:34;;;;;;;1.08;1.08;;;;;;;19.36;100.00;100280.22;5054520;28;20033;-90
2023/07/01 11:01:50;;;;;;;1.40;1.40;;;;;;;19.36;100.00;100272.34;5055033;28;20083;-89
2023/07/01 11:04:35;;;;;;;2.47;1.73;;;;;;;19.49;100.00;100280.31;5054884;28;20107;-88
2023/07/01 11:07:12;;;;;;;2.20;2.00;;;;;;;19.48;100.00;100268.09;5055001;28;20052;-89
2023/07/01 11:09:53;;;;;;;2.50;2.10;;;;;;;19.55;100.00;100274.69;5053910;28;20103;-88
2023/07/01 11:12:31;;;;;;;2.50;2.30;;;;;;;19.51;100.00;100270.53;5053367;28;20035;-89
2023/07/01 11:14:56;;;;;;;2.20;2.00;;;;;;;19.52;100.00;100264.34;5064160;28;20051;-87
2023/07/01 11:17:23;;;;;;;2.40;2.20;;;;;;;19.60;100.00;100274.38;5074383;28;20037;-88
2023/07/01 11:19:56;;;;;;;3.45;2.33;;;;;;;19.84;100.00;100277.25;5074285;28;20484;-88
2023/07/01 11:22:30;;;;;;;2.53;2.10;;;;;;;20.15;100.00;100274.47;5074623;28;20047;-91
2023/07/01 11:25:22;;;;;;;2.90;2.58;;;;;;;20.46;100.00;100275.97;5074499;28;20021;-87
2023/07/01 11:27:47;;;;;;;2.50;2.30;;;;;;;20.64;100.00;100251.94;5073642;28;20104;-88